Time,TemperatureF,DewpointF,PressureIn,WindDirection,WindDirectionDegrees,WindSpeedMPH,WindSpeedGustMPH,Humidity,HourlyPrecipIn,Conditions,Clouds,dailyrainin,SolarRadiationWatts/m^2,SoftwareType,DateUTC
2013-01-23 01:00:00,10.0,4.0,30.25,SSE,160,5.0,6.0,76,-99.99,,,-99.99,1.360000,,2013-01-23 08:00:00,
2013-01-23 01:53:00,10.0,4.0,30.25,SSE,160,5.0,6.0,76,-99.99,,,-99.99,1.360000,,2013-01-23 08:53:00,
2013-01-23 02:00:00,7.0,2.0,30.25,SSE,160,5.0,7.0,80,-99.99,,,-99.99,1.350000,,2013-01-23 09:00:00,
2013-01-23 02:53:00,7.0,2.0,30.25,SSE,160,5.0,7.0,80,-99.99,,,-99.99,1.350000,,2013-01-23 09:53:00,
2013-01-23 03:00:00,10.0,6.0,30.24,SSE,151,5.0,9.0,83,-99.99,,,-99.99,1.360000,,2013-01-23 10:00:00,
2013-01-23 03:53:00,10.0,6.0,30.24,SSE,151,5.0,9.0,83,-99.99,,,-99.99,1.360000,,2013-01-23 10:53:00,
2013-01-23 04:00:00,5.0,1.0,30.26,SE,137,3.0,8.0,84,-99.99,,,-99.99,1.360000,,2013-01-23 11:00:00,
2013-01-23 04:53:00,5.0,1.0,30.26,SE,137,3.0,8.0,84,-99.99,,,-99.99,1.360000,,2013-01-23 11:53:00,
2013-01-23 05:00:00,9.0,4.0,30.24,SE,141,3.0,8.0,80,-99.99,,,-99.99,1.370000,,2013-01-23 12:00:00,
2013-01-23 05:53:00,9.0,4.0,30.24,SE,141,3.0,8.0,80,-99.99,,,-99.99,1.370000,,2013-01-23 12:53:00,
2013-01-23 06:00:00,15.0,9.0,30.26,SSE,160,6.0,6.0,77,-99.99,,,-99.99,1.370000,,2013-01-23 13:00:00,
2013-01-23 06:53:00,15.0,9.0,30.26,SSE,160,6.0,6.0,77,-99.99,,,-99.99,1.370000,,2013-01-23 13:53:00,
2013-01-23 07:00:00,19.0,10.0,30.25,SE,146,5.0,9.0,68,-99.99,,,-99.99,1.210000,,2013-01-23 14:00:00,
2013-01-23 07:53:00,19.0,10.0,30.25,SE,146,5.0,9.0,68,-99.99,,,-99.99,1.210000,,2013-01-23 14:53:00,
2013-01-23 08:00:00,11.0,7.0,30.25,SSE,159,5.0,9.0,85,-99.99,,,-99.99,5.700000,,2013-01-23 15:00:00,
2013-01-23 08:53:00,11.0,7.0,30.25,SSE,159,5.0,9.0,85,-99.99,,,-99.99,5.700000,,2013-01-23 15:53:00,
2013-01-23 09:00:00,17.0,10.0,30.25,SSE,159,7.0,9.0,75,-99.99,,,-99.99,82.300003,,2013-01-23 16:00:00,
2013-01-23 09:53:00,17.0,10.0,30.25,SSE,159,7.0,9.0,75,-99.99,,,-99.99,82.300003,,2013-01-23 16:53:00,
2013-01-23 10:00:00,25.0,14.0,30.25,SSE,160,7.0,9.0,62,-99.99,,,-99.99,178.100006,,2013-01-23 17:00:00,
2013-01-23 10:53:00,25.0,14.0,30.25,SSE,160,7.0,9.0,62,-99.99,,,-99.99,178.100006,,2013-01-23 17:53:00,
2013-01-23 12:00:00,30.0,18.0,30.24,SSE,150,6.0,9.0,59,-99.99,,,-99.99,392.299988,,2013-01-23 19:00:00,
2013-01-23 12:53:00,30.0,18.0,30.24,SSE,150,6.0,9.0,59,-99.99,,,-99.99,392.299988,,2013-01-23 19:53:00,
2013-01-23 13:00:00,32.0,16.0,30.22,SSE,153,6.0,9.0,50,-99.99,,,-99.99,370.100006,,2013-01-23 20:00:00,
2013-01-23 13:53:00,32.0,16.0,30.22,SSE,153,6.0,9.0,50,-99.99,,,-99.99,370.100006,,2013-01-23 20:53:00,
2013-01-23 14:00:00,32.0,21.0,30.21,SSE,156,5.0,9.0,61,-99.99,,,-99.99,371.600006,,2013-01-23 21:00:00,
2013-01-23 14:53:00,32.0,21.0,30.21,SSE,156,5.0,9.0,61,-99.99,,,-99.99,371.600006,,2013-01-23 21:53:00,